Time;durP1;ratioP1;P1;durP2;ratioP2;P2;SDS_P1;SDS_P2;PMS_P1;PMS_P2;Temp;Humidity;BMP_temperature;BMP_pressure;BME280_temperature;BME280_humidity;BME280_pressure;Samples;Min_cycle;Max_cycle;Signal;HPM_P1;HPM_P2
2020/12/24 00:01:31;;;;;;;8.93;5.57;;;10.50;99.90;;;;;;4983921;28;20034;-70
2020/12/24 00:03:56;;;;;;;7.57;4.57;;;10.50;99.90;;;;;;4983918;28;20040;-70
2020/12/24 00:06:22;;;;;;;8.90;5.75;;;10.50;99.90;;;;;;4986181;28;20030;-70
2020/12/24 00:08:48;;;;;;;7.15;4.75;;;10.60;99.90;;;;;;4983571;28;20437;-70
2020/12/24 00:11:13;;;;;;;7.88;4.60;;;10.60;99.90;;;;;;4985107;28;20434;-69
2020/12/24 00:13:39;;;;;;;8.88;4.57;;;10.60;99.90;;;;;;4982717;28;20945;-70
2020/12/24 00:16:04;;;;;;;8.05;4.32;;;10.50;99.90;;;;;;4989911;28;20100;-69
2020/12/24 00:18:30;;;;;;;5.97;3.80;;;10.60;99.90;;;;;;4986173;28;20045;-69
2020/12/24 00:20:56;;;;;;;4.55;3.47;;;10.60;99.90;;;;;;4989160;28;20033;-69
2020/12/24 00:23:22;;;;;;;5.28;3.50;;;10.60;99.90;;;;;;4990074;28;20914;-70
2020/12/24 00:25:47;;;;;;;6.18;2.67;;;10.70;99.90;;;;;;4985208;28;20030;-72
2020/12/24 00:28:19;;;;;;;4.03;2.55;;;10.70;99.90;;;;;;4983930;28;20066;-69
2020/12/24 00:30:45;;;;;;;3.83;2.45;;;10.60;99.90;;;;;;4982511;28;20067;-69
2020/12/24 00:33:11;;;;;;;3.65;2.45;;;10.60;99.90;;;;;;4983727;28;20142;-68
2020/12/24 00:35:37;;;;;;;6.80;2.00;;;10.60;99.90;;;;;;4985872;28;20076;-75
2020/12/24 00:38:03;;;;;;;8.60;4.45;;;10.60;99.90;;;;;;4983239;28;20049;-69
2020/12/24 00:40:29;;;;;;;5.10;3.40;;;10.70;99.90;;;;;;4991246;28;20031;-71
2020/12/24 00:42:54;;;;;;;2.25;1.50;;;10.60;99.90;;;;;;4982395;28;20669;-69
2020/12/24 00:45:20;;;;;;;5.47;1.92;;;10.60;99.90;;;;;;4983936;28;20026;-72
2020/12/24 00:47:46;;;;;;;2.90;1.90;;;10.50;99.90;;;;;;4983550;28;20229;-69
2020/12/24 00:50:12;;;;;;;9.25;4.45;;;10.50;99.90;;;;;;4981402;28;20085;-69
2020/12/24 00:52:38;;;;;;;3.42;2.28;;;10.40;99.90;;;;;;4988945;28;20069;-69
2020/12/24 00:55:05;;;;;;;2.47;2.10;;;10.40;99.90;;;;;;4986555;28;20817;-68
2020/12/24 00:57:31;;;;;;;2.85;1.90;;;10.40;99.90;;;;;;4985448;28;20129;-68
2020/12/24 00:59:57;;;;;;;5.30;1.70;;;10.40;99.90;;;;;;4982802;28;20622;-67
2020/12/24 01:02:23;;;;;;;2.83;1.60;;;10.40;99.90;;;;;;4984963;28;20030;-67
2020/12/24 01:04:49;;;;;;;2.97;1.67;;;10.40;99.90;;;;;;4988797;28;20577;-67
2020/12/24 01:07:15;;;;;;;3.28;1.80;;;10.50;99.90;;;;;;4983218;28;20869;-67
2020/12/24 01:09:41;;;;;;;6.13;1.60;;;10.50;99.90;;;;;;4983754;28;20030;-68
2020/12/24 01:12:08;;;;;;;3.65;1.98;;;10.50;99.90;;;;;;4987178;28;20810;-68
2020/12/24 01:14:33;;;;;;;4.60;2.50;;;10.50;99.90;;;;;;4988650;28;20034;-67
2020/12/24 01:16:59;;;;;;;4.15;1.50;;;10.50;99.90;;;;;;4982890;28;20073;-70
2020/12/24 01:19:24;;;;;;;2.20;1.50;;;10.40;99.90;;;;;;4996876;28;20042;-67
2020/12/24 01:21:50;;;;;;;2.15;1.40;;;10.30;99.90;;;;;;4981794;28;20109;-67
2020/12/24 01:24:16;;;;;;;3.85;1.58;;;10.40;99.90;;;;;;4989259;28;20133;-67
2020/12/24 01:26:46;;;;;;;1.75;1.42;;;10.20;99.90;;;;;;4982266;28;20029;-67
2020/12/24 01:29:12;;;;;;;3.08;1.63;;;10.20;99.90;;;;;;4981860;28;20026;-67
2020/12/24 01:31:43;;;;;;;4.10;1.50;;;10.20;99.90;;;;;;4991697;28;20034;-67
2020/12/24 01:34:09;;;;;;;2.83;1.65;;;10.10;99.90;;;;;;4991672;28;20034;-67
2020/12/24 01:36:35;;;;;;;6.47;3.30;;;10.10;99.90;;;;;;4984549;28;20045;-66
2020/12/24 01:39:00;;;;;;;11.10;5.97;;;10.10;99.90;;;;;;4992384;28;20026;-67
2020/12/24 01:41:26;;;;;;;2.20;1.63;;;10.10;99.90;;;;;;4993018;28;20544;-67
2020/12/24 01:43:52;;;;;;;2.50;1.80;;;10.10;99.90;;;;;;4990306;28;20136;-72
2020/12/24 01:46:17;;;;;;;1.67;1.40;;;10.10;99.90;;;;;;4998747;28;20064;-67
2020/12/24 01:48:43;;;;;;;2.95;1.40;;;10.00;99.90;;;;;;4988771;28;20117;-69
2020/12/24 01:51:17;;;;;;;2.67;1.38;;;10.00;99.90;;;;;;4982148;28;20410;-68
2020/12/24 01:53:43;;;;;;;2.45;1.60;;;9.90;99.90;;;;;;4989444;28;20052;-67
2020/12/24 01:56:09;;;;;;;3.08;1.70;;;9.90;99.90;;;;;;4985383;28;20035;-68
2020/12/24 01:58:34;;;;;;;5.65;1.90;;;9.80;99.90;;;;;;4988918;28;20034;-68
2020/12/24 02:01:00;;;;;;;3.53;2.42;;;9.80;99.90;;;;;;4998319;28;20026;-70
2020/12/24 02:03:26;;;;;;;5.18;3.03;;;9.80;99.90;;;;;;4989052;28;20876;-71
2020/12/24 02:05:52;;;;;;;3.33;2.28;;;9.80;99.90;;;;;;4984352;28;20030;-68
2020/12/24 02:08:18;;;;;;;4.38;2.00;;;9.70;99.90;;;;;;4991196;28;20694;-67
2020/12/24 02:10:44;;;;;;;4.35;2.60;;;9.60;99.90;;;;;;4992237;28;20057;-67
2020/12/24 02:13:09;;;;;;;4.57;2.25;;;9.50;99.90;;;;;;4984762;28;20233;-67
2020/12/24 02:15:35;;;;;;;4.85;2.45;;;9.40;99.90;;;;;;4986614;28;20034;-70
2020/12/24 02:18:01;;;;;;;3.55;2.47;;;9.50;99.90;;;;;;4986610;28;20042;-67
2020/12/24 02:20:27;;;;;;;5.43;2.45;;;9.40;99.90;;;;;;4992937;28;20030;-68
2020/12/24 02:22:53;;;;;;;7.55;3.83;;;9.40;99.90;;;;;;4984519;28;20038;-68
2020/12/24 02:25:19;;;;;;;4.70;3.17;;;9.40;99.90;;;;;;4984660;28;20027;-68
2020/12/24 02:27:45;;;;;;;6.97;3.00;;;9.40;99.90;;;;;;4990955;28;20036;-68
2020/12/24 02:30:10;;;;;;;7.10;2.90;;;9.30;99.90;;;;;;4985514;28;20791;-68
2020/12/24 02:32:36;;;;;;;23.35;10.65;;;9.30;99.90;;;;;;4991519;28;20022;-68
2020/12/24 02:35:02;;;;;;;7.13;3.63;;;9.30;99.90;;;;;;4990211;28;20566;-68
2020/12/24 02:37:28;;;;;;;6.13;3.40;;;9.30;99.90;;;;;;4989031;28;20080;-67
2020/12/24 02:39:54;;;;;;;4.72;3.35;;;9.30;99.90;;;;;;4982120;28;20039;-68
2020/12/24 02:42:19;;;;;;;5.13;3.28;;;9.30;99.90;;;;;;4989991;28;20026;-68
2020/12/24 02:44:45;;;;;;;6.43;3.95;;;9.20;99.90;;;;;;4994800;28;20561;-68
2020/12/24 02:47:11;;;;;;;8.70;3.88;;;9.30;99.90;;;;;;4994039;28;20101;-68
2020/12/24 02:49:38;;;;;;;7.38;4.15;;;9.30;99.90;;;;;;4994072;28;20815;-68
2020/12/24 02:52:05;;;;;;;6.00;3.33;;;9.40;99.90;;;;;;4985576;28;20125;-68
2020/12/24 02:54:31;;;;;;;7.47;3.67;;;9.40;99.90;;;;;;4990242;28;20033;-68
2020/12/24 02:56:56;;;;;;;6.22;3.72;;;9.50;99.90;;;;;;4989991;28;20042;-68
2020/12/24 02:59:22;;;;;;;6.05;3.80;;;9.60;99.90;;;;;;4990755;28;20029;-68
2020/12/24 03:01:48;;;;;;;5.60;3.45;;;9.60;99.90;;;;;;4990792;28;20038;-68
2020/12/24 03:04:13;;;;;;;4.30;3.08;;;9.70;99.90;;;;;;4987976;28;20099;-68
2020/12/24 03:06:39;;;;;;;12.25;5.60;;;9.80;99.90;;;;;;4973957;28;20147;-68
2020/12/24 03:09:04;;;;;;;7.22;2.95;;;9.80;99.90;;;;;;4997462;28;20760;-68
2020/12/24 03:11:30;;;;;;;5.00;2.70;;;9.80;99.90;;;;;;4986262;28;20045;-68
2020/12/24 03:13:56;;;;;;;7.35;2.58;;;9.90;99.90;;;;;;4985748;28;20030;-68
2020/12/24 03:16:22;;;;;;;5.45;2.42;;;10.00;99.90;;;;;;4990600;28;20261;-68
2020/12/24 03:18:47;;;;;;;3.65;2.47;;;10.00;99.90;;;;;;4984901;28;20085;-68
2020/12/24 03:21:13;;;;;;;11.88;2.38;;;10.00;99.90;;;;;;4993695;28;20031;-70
2020/12/24 03:23:38;;;;;;;6.22;2.70;;;10.10;99.90;;;;;;4993949;28;20143;-74
2020/12/24 03:26:04;;;;;;;8.75;4.90;;;10.10;99.90;;;;;;4998543;28;20040;-76
2020/12/24 03:28:30;;;;;;;11.70;3.88;;;10.20;99.90;;;;;;4993587;28;20040;-73
2020/12/24 03:30:55;;;;;;;5.32;2.83;;;10.20;99.90;;;;;;4998790;28;20034;-75
2020/12/24 03:33:21;;;;;;;7.15;3.20;;;10.10;99.90;;;;;;4987190;28;20737;-74
2020/12/24 03:35:47;;;;;;;7.82;2.65;;;10.10;99.90;;;;;;4997553;28;20066;-73
2020/12/24 03:38:12;;;;;;;6.65;2.58;;;10.10;99.90;;;;;;4987434;28;20029;-74
2020/12/24 03:40:38;;;;;;;12.60;2.60;;;10.10;99.90;;;;;;4994907;28;20030;-75
2020/12/24 03:43:04;;;;;;;4.95;1.73;;;10.10;99.90;;;;;;4990179;28;20045;-74
2020/12/24 03:45:30;;;;;;;4.63;1.92;;;10.10;99.90;;;;;;4986804;28;20034;-75
2020/12/24 03:47:56;;;;;;;2.88;1.60;;;10.10;99.90;;;;;;4983603;28;20038;-74
2020/12/24 03:50:21;;;;;;;5.55;1.90;;;10.10;99.90;;;;;;4991026;28;20561;-74
2020/12/24 03:52:47;;;;;;;6.88;2.42;;;10.10;99.90;;;;;;4988392;28;20046;-80
2020/12/24 03:55:12;;;;;;;16.63;7.63;;;10.00;99.90;;;;;;4988333;28;20034;-75
2020/12/24 03:57:38;;;;;;;3.25;1.80;;;10.00;99.90;;;;;;4992522;28;20069;-76
2020/12/24 04:00:04;;;;;;;7.90;2.00;;;10.00;99.90;;;;;;4995122;28;20901;-75
2020/12/24 04:02:31;;;;;;;6.45;1.67;;;10.00;99.90;;;;;;4991476;28;20046;-75
2020/12/24 04:04:56;;;;;;;4.13;1.50;;;10.00;99.90;;;;;;4989838;28;20030;-74
2020/12/24 04:07:22;;;;;;;6.55;1.45;;;9.90;99.90;;;;;;4982669;28;20604;-75
2020/12/24 04:09:48;;;;;;;5.50;1.75;;;9.90;99.90;;;;;;4987178;28;20030;-75
2020/12/24 04:12:13;;;;;;;2.63;1.45;;;9.80;99.90;;;;;;4969013;28;20038;-74
2020/12/24 04:14:39;;;;;;;3.65;1.85;;;9.70;99.90;;;;;;4985703;28;20858;-74
2020/12/24 04:17:05;;;;;;;6.28;1.80;;;9.70;99.90;;;;;;4986844;28;20478;-74
2020/12/24 04:19:30;;;;;;;5.25;1.95;;;9.60;99.90;;;;;;4990740;28;20392;-74
2020/12/24 04:21:56;;;;;;;5.45;1.73;;;9.60;99.90;;;;;;4989843;28;20034;-74
2020/12/24 04:24:22;;;;;;;3.50;1.23;;;9.60;99.90;;;;;;4990323;28;20720;-75
2020/12/24 04:26:47;;;;;;;4.57;1.35;;;9.60;99.90;;;;;;4992879;28;20034;-75
2020/12/24 04:29:13;;;;;;;3.50;1.55;;;9.60;99.90;;;;;;4997906;28;20395;-75
2020/12/24 04:31:43;;;;;;;4.65;1.13;;;9.60;99.90;;;;;;4973814;28;20041;-75
2020/12/24 04:34:09;;;;;;;5.68;1.40;;;9.50;99.90;;;;;;4986668;28;20477;-75
2020/12/24 04:36:35;;;;;;;10.70;1.30;;;9.50;99.90;;;;;;4992362;28;20482;-75
2020/12/24 04:39:02;;;;;;;2.53;1.33;;;9.60;99.90;;;;;;4990961;28;20030;-74
2020/12/24 04:41:28;;;;;;;5.38;1.27;;;9.50;99.90;;;;;;4983410;28;20088;-75
2020/12/24 04:43:55;;;;;;;5.88;1.40;;;9.40;99.90;;;;;;4999480;28;20234;-74
2020/12/24 04:46:27;;;;;;;4.90;1.30;;;9.40;99.90;;;;;;4992260;28;20641;-74
2020/12/24 04:48:55;;;;;;;5.63;1.10;;;9.40;99.90;;;;;;4998743;28;20504;-74
2020/12/24 04:51:21;;;;;;;3.22;1.08;;;9.40;99.90;;;;;;4989664;28;20040;-74
2020/12/24 04:53:47;;;;;;;3.45;1.33;;;9.50;99.90;;;;;;4984202;28;20105;-74
2020/12/24 04:56:13;;;;;;;4.88;1.17;;;9.50;99.90;;;;;;4989161;28;20173;-74
2020/12/24 04:58:43;;;;;;;4.95;1.50;;;9.50;99.90;;;;;;4990187;28;20475;-74
2020/12/24 05:01:16;;;;;;;5.28;1.40;;;9.50;99.90;;;;;;4987465;28;20060;-74
2020/12/24 05:03:42;;;;;;;2.95;1.30;;;9.60;99.90;;;;;;4987943;28;20390;-74
2020/12/24 05:06:16;;;;;;;4.40;1.42;;;9.50;99.90;;;;;;4980869;28;20046;-74
2020/12/24 05:08:53;;;;;;;4.38;1.40;;;9.50;99.90;;;;;;4990112;28;20165;-74
2020/12/24 05:11:30;;;;;;;4.35;1.27;;;9.40;99.90;;;;;;4998484;28;20080;-73
2020/12/24 05:14:25;;;;;;;5.28;1.10;;;9.40;99.90;;;;;;4991166;28;20038;-74
2020/12/24 05:17:07;;;;;;;3.50;1.30;;;9.40;99.90;;;;;;4981824;28;20766;-75
2020/12/24 05:19:36;;;;;;;7.47;1.42;;;9.40;99.90;;;;;;4989531;28;20113;-74
2020/12/24 05:22:18;;;;;;;7.50;1.40;;;9.40;99.90;;;;;;4991882;28;20474;-75
2020/12/24 05:24:44;;;;;;;15.05;4.55;;;9.50;99.90;;;;;;4998754;28;20034;-73
2020/12/24 05:27:12;;;;;;;9.88;2.28;;;9.50;99.90;;;;;;4974922;28;20073;-73
2020/12/24 05:29:40;;;;;;;7.40;1.40;;;9.40;99.90;;;;;;4987921;28;20405;-72
2020/12/24 05:32:07;;;;;;;3.90;1.50;;;9.40;99.90;;;;;;4981326;28;20069;-74
2020/12/24 05:34:33;;;;;;;4.53;1.58;;;9.40;99.90;;;;;;4987500;28;20030;-73
2020/12/24 05:37:09;;;;;;;4.53;1.30;;;9.30;99.90;;;;;;4989061;28;20374;-73
2020/12/24 05:39:35;;;;;;;5.45;1.58;;;9.30;99.90;;;;;;4988175;28;20044;-73
2020/12/24 05:42:05;;;;;;;8.65;1.27;;;9.20;99.90;;;;;;4985247;28;20042;-73
2020/12/24 05:44:31;;;;;;;10.98;4.40;;;9.30;99.90;;;;;;4987583;28;20073;-72
2020/12/24 05:46:57;;;;;;;10.85;3.50;;;9.30;99.90;;;;;;4982314;28;20886;-72
2020/12/24 05:49:24;;;;;;;16.38;4.25;;;9.20;99.90;;;;;;4984093;28;20129;-72
2020/12/24 05:51:57;;;;;;;11.80;2.00;;;9.10;99.90;;;;;;4988723;28;20042;-72
2020/12/24 05:54:23;;;;;;;10.10;1.83;;;9.20;99.90;;;;;;4983589;28;20031;-72
2020/12/24 05:56:49;;;;;;;5.75;1.67;;;9.10;99.90;;;;;;4981525;28;20113;-72
2020/12/24 05:59:22;;;;;;;4.38;1.25;;;9.10;99.90;;;;;;4982119;28;20383;-72
2020/12/24 06:02:10;;;;;;;9.82;1.45;;;9.00;99.90;;;;;;4983121;28;20041;-73
2020/12/24 06:05:05;;;;;;;3.22;1.40;;;8.90;99.90;;;;;;4988971;28;20037;-71
2020/12/24 06:07:32;;;;;;;3.83;1.02;;;8.90;99.90;;;;;;4997148;28;20033;-73
2020/12/24 06:10:04;;;;;;;6.50;1.23;;;8.90;99.90;;;;;;4982543;28;20045;-75
2020/12/24 06:12:30;;;;;;;5.38;1.40;;;8.80;99.90;;;;;;4985708;28;20046;-76
2020/12/24 06:15:01;;;;;;;12.88;2.20;;;8.80;99.90;;;;;;4992146;28;20052;-76
2020/12/24 06:17:30;;;;;;;5.97;1.30;;;8.70;99.90;;;;;;4987433;28;20068;-74
2020/12/24 06:19:57;;;;;;;4.80;1.30;;;8.70;99.90;;;;;;5000636;28;20038;-73
2020/12/24 06:22:26;;;;;;;6.38;1.27;;;8.70;99.90;;;;;;4999914;28;20038;-73
2020/12/24 06:24:59;;;;;;;7.13;1.10;;;8.60;99.90;;;;;;5001342;28;20037;-73
2020/12/24 06:27:40;;;;;;;7.63;1.35;;;8.60;99.90;;;;;;4994712;28;20041;-73
2020/12/24 06:30:30;;;;;;;6.57;1.15;;;8.60;99.90;;;;;;4980970;28;20521;-73
2020/12/24 06:32:56;;;;;;;6.68;1.23;;;8.50;99.90;;;;;;4999822;28;20033;-71
2020/12/24 06:35:31;;;;;;;5.50;1.33;;;8.40;99.90;;;;;;5018447;28;20545;-77
2020/12/24 06:37:57;;;;;;;9.00;1.92;;;8.40;99.90;;;;;;4998250;28;20066;-74
2020/12/24 06:40:30;;;;;;;5.95;1.80;;;8.40;99.90;;;;;;5006228;28;20121;-73
2020/12/24 06:42:56;;;;;;;7.90;1.33;;;8.40;99.90;;;;;;4996673;28;20091;-73
2020/12/24 06:45:31;;;;;;;7.90;1.23;;;8.40;99.90;;;;;;5016746;28;20030;-73
2020/12/24 06:48:26;;;;;;;9.15;1.15;;;8.40;99.90;;;;;;4988530;28;20092;-73
2020/12/24 06:51:00;;;;;;;11.07;2.08;;;8.50;99.90;;;;;;4972668;28;20064;-73
2020/12/24 06:53:38;;;;;;;10.50;2.78;;;8.50;99.90;;;;;;5008189;28;20469;-73
2020/12/24 06:56:22;;;;;;;7.90;1.38;;;8.50;99.90;;;;;;5002526;28;20052;-73
2020/12/24 06:58:53;;;;;;;9.15;2.08;;;8.40;99.90;;;;;;5016141;28;20034;-73
2020/12/24 07:01:21;;;;;;;10.93;1.25;;;8.30;99.90;;;;;;5003050;28;20048;-71
2020/12/24 07:03:48;;;;;;;11.23;1.27;;;8.20;99.90;;;;;;5003702;28;20034;-73
2020/12/24 07:06:40;;;;;;;9.40;1.30;;;8.10;99.90;;;;;;4997049;28;20124;-73
2020/12/24 07:09:32;;;;;;;7.40;1.15;;;8.00;99.90;;;;;;4998149;28;20045;-73
2020/12/24 07:11:59;;;;;;;5.65;1.00;;;8.00;99.90;;;;;;4995092;28;20042;-73
2020/12/24 07:14:33;;;;;;;9.00;1.35;;;7.90;99.90;;;;;;5015514;28;20114;-72
2020/12/24 07:17:06;;;;;;;4.40;1.38;;;7.80;99.90;;;;;;5006909;28;20033;-72
2020/12/24 07:19:33;;;;;;;10.85;2.90;;;7.80;99.90;;;;;;5015585;28;20884;-72
2020/12/24 07:22:04;;;;;;;8.85;2.75;;;7.80;99.90;;;;;;5004567;28;20145;-72
2020/12/24 07:24:30;;;;;;;13.70;1.80;;;7.80;99.90;;;;;;4998079;28;20026;-72
2020/12/24 07:26:59;;;;;;;5.72;1.20;;;7.70;99.90;;;;;;5003937;28;20060;-72
2020/12/24 07:29:27;;;;;;;9.30;1.30;;;7.70;99.90;;;;;;5004045;28;20037;-72
2020/12/24 07:31:55;;;;;;;12.57;3.80;;;7.70;99.90;;;;;;4996007;28;20025;-71
2020/12/24 07:34:28;;;;;;;6.43;1.40;;;7.70;99.90;;;;;;5010481;28;20048;-71
2020/12/24 07:36:54;;;;;;;9.25;1.95;;;7.70;99.90;;;;;;4998847;28;20116;-72
2020/12/24 07:39:20;;;;;;;10.80;2.10;;;7.70;99.90;;;;;;5011504;28;20037;-72
2020/12/24 07:41:46;;;;;;;10.95;3.45;;;7.70;99.90;;;;;;5008035;28;20033;-68
2020/12/24 07:44:17;;;;;;;6.93;2.35;;;7.70;99.90;;;;;;5003957;28;20541;-72
2020/12/24 07:46:48;;;;;;;8.10;1.48;;;7.70;99.90;;;;;;5000300;28;20037;-71
2020/12/24 07:49:14;;;;;;;9.30;1.65;;;7.70;99.90;;;;;;5002429;28;20788;-71
2020/12/24 07:51:41;;;;;;;6.68;1.40;;;7.70;99.90;;;;;;4981938;28;20035;-71
2020/12/24 07:54:15;;;;;;;6.05;1.23;;;7.80;99.90;;;;;;4999726;28;20485;-72
2020/12/24 07:56:50;;;;;;;4.57;1.08;;;7.80;99.90;;;;;;5003532;28;20040;-71
2020/12/24 07:59:16;;;;;;;9.90;2.20;;;7.80;99.90;;;;;;4996045;28;20123;-71
2020/12/24 08:01:42;;;;;;;9.70;1.75;;;7.90;99.90;;;;;;5000359;28;20033;-71
2020/12/24 08:04:08;;;;;;;5.07;1.17;;;8.00;99.90;;;;;;5006491;28;20033;-72
2020/12/24 08:06:35;;;;;;;7.15;1.60;;;8.00;99.90;;;;;;5000977;28;20025;-71
2020/12/24 08:09:11;;;;;;;8.18;1.33;;;8.00;99.90;;;;;;5011749;28;20060;-71
2020/12/24 08:11:37;;;;;;;5.53;1.42;;;8.00;99.90;;;;;;5001662;28;20034;-71
2020/12/24 08:14:04;;;;;;;6.90;1.00;;;8.00;99.90;;;;;;5011507;28;20041;-72
2020/12/24 08:16:34;;;;;;;5.50;1.02;;;8.00;99.90;;;;;;5003004;28;20089;-76
2020/12/24 08:19:23;;;;;;;4.32;1.00;;;8.00;99.90;;;;;;5012808;28;20034;-76
2020/12/24 08:22:01;;;;;;;7.85;1.30;;;8.00;99.90;;;;;;5000366;28;20041;-76
2020/12/24 08:24:27;;;;;;;11.75;1.85;;;8.00;99.90;;;;;;4999281;28;20034;-76
2020/12/24 08:26:54;;;;;;;5.38;1.00;;;7.90;99.90;;;;;;5001784;28;20865;-75
2020/12/24 08:29:20;;;;;;;9.82;1.48;;;7.90;99.90;;;;;;5004037;28;20037;-75
2020/12/24 08:31:46;;;;;;;4.18;1.50;;;8.00;99.90;;;;;;4998446;28;20522;-76
2020/12/24 08:34:12;;;;;;;4.28;1.00;;;7.90;99.90;;;;;;5001377;28;20033;-75
2020/12/24 08:36:44;;;;;;;7.53;1.13;;;8.00;99.90;;;;;;5008840;28;20029;-76
2020/12/24 08:39:13;;;;;;;9.40;1.20;;;7.90;99.90;;;;;;5003393;28;20037;-76
2020/12/24 08:41:47;;;;;;;6.93;1.70;;;8.00;99.90;;;;;;5007351;28;20057;-75
2020/12/24 08:44:17;;;;;;;9.07;2.35;;;8.10;99.90;;;;;;5007825;28;20029;-76
2020/12/24 08:46:44;;;;;;;11.32;1.20;;;8.10;99.90;;;;;;5001839;28;20042;-76
2020/12/24 08:49:24;;;;;;;6.85;0.98;;;8.10;99.90;;;;;;5011465;28;20088;-74
2020/12/24 08:52:06;;;;;;;5.97;1.30;;;8.20;99.90;;;;;;5001574;28;20037;-75
2020/12/24 08:54:32;;;;;;;6.53;1.23;;;8.20;99.90;;;;;;4989675;28;20144;-75
2020/12/24 08:56:58;;;;;;;6.05;1.10;;;8.20;99.90;;;;;;5010757;28;20042;-73
2020/12/24 08:59:24;;;;;;;4.72;1.02;;;8.30;99.90;;;;;;5001823;28;20095;-72
2020/12/24 09:01:49;;;;;;;4.70;1.08;;;8.30;99.90;;;;;;5002300;28;20660;-73
2020/12/24 09:04:17;;;;;;;9.45;1.88;;;8.40;99.90;;;;;;4999099;28;20032;-72
2020/12/24 09:06:44;;;;;;;6.75;1.58;;;8.30;99.90;;;;;;5003434;28;20030;-70
2020/12/24 09:09:22;;;;;;;21.02;1.52;;;8.20;99.90;;;;;;5007863;28;20061;-72
2020/12/24 09:11:49;;;;;;;5.90;0.90;;;8.20;99.90;;;;;;5006519;28;20827;-71
2020/12/24 09:14:20;;;;;;;11.38;3.42;;;8.20;99.90;;;;;;5005049;28;20116;-72
2020/12/24 09:16:58;;;;;;;8.32;2.13;;;8.10;99.90;;;;;;5007822;28;20628;-71
2020/12/24 09:19:25;;;;;;;13.55;4.32;;;8.30;99.90;;;;;;5002118;28;20038;-71
2020/12/24 09:21:53;;;;;;;16.90;7.75;;;8.20;99.90;;;;;;4996892;28;20035;-71
2020/12/24 09:24:19;;;;;;;14.70;4.25;;;8.10;99.90;;;;;;5002015;28;20034;-71
2020/12/24 09:26:46;;;;;;;9.60;2.50;;;8.20;99.90;;;;;;5005655;28;20044;-71
2020/12/24 09:29:13;;;;;;;10.00;2.08;;;8.20;99.90;;;;;;5007981;28;20032;-72
2020/12/24 09:31:38;;;;;;;6.10;1.83;;;8.20;99.90;;;;;;4999757;28;20044;-72
2020/12/24 09:34:05;;;;;;;7.85;1.50;;;8.20;99.90;;;;;;4988711;28;20042;-72
2020/12/24 09:36:31;;;;;;;9.73;1.83;;;8.30;99.90;;;;;;4997922;28;20088;-72
2020/12/24 09:38:57;;;;;;;12.02;2.72;;;8.30;99.90;;;;;;4995474;28;20029;-69
2020/12/24 09:41:23;;;;;;;9.88;1.98;;;8.30;99.90;;;;;;4999802;28;20094;-72
2020/12/24 09:43:48;;;;;;;12.40;1.98;;;8.30;99.90;;;;;;5001783;28;20125;-71
2020/12/24 09:46:15;;;;;;;11.07;1.50;;;8.40;99.90;;;;;;5004048;28;20034;-71
2020/12/24 09:48:41;;;;;;;7.60;1.30;;;8.40;99.90;;;;;;4999676;28;20985;-72
2020/12/24 09:51:08;;;;;;;10.88;1.50;;;8.40;99.90;;;;;;5007316;28;20041;-73
2020/12/24 09:53:33;;;;;;;11.27;1.25;;;8.40;99.90;;;;;;5014923;28;20044;-74
2020/12/24 09:55:59;;;;;;;13.15;5.15;;;8.50;99.90;;;;;;4983878;28;20037;-74
2020/12/24 09:58:25;;;;;;;12.10;3.72;;;8.50;99.90;;;;;;5010291;28;20037;-70
2020/12/24 10:00:51;;;;;;;10.43;2.05;;;8.50;99.90;;;;;;5010461;28;20033;-73
2020/12/24 10:03:16;;;;;;;7.07;1.13;;;8.60;99.90;;;;;;5001855;28;20037;-73
2020/12/24 10:05:42;;;;;;;6.85;2.08;;;8.60;99.90;;;;;;5002130;28;20045;-74
2020/12/24 10:08:08;;;;;;;10.23;1.30;;;8.60;99.90;;;;;;5003214;28;20065;-78
2020/12/24 10:10:33;;;;;;;6.60;1.00;;;8.60;99.90;;;;;;5015683;28;20052;-72
2020/12/24 10:12:59;;;;;;;8.77;1.90;;;8.60;99.90;;;;;;5006078;28;20032;-71
2020/12/24 10:15:25;;;;;;;11.25;2.58;;;8.70;99.90;;;;;;5001469;28;20695;-73
2020/12/24 10:17:50;;;;;;;8.00;1.60;;;8.70;99.90;;;;;;5013619;28;20030;-71
2020/12/24 10:20:16;;;;;;;9.35;1.20;;;8.70;99.90;;;;;;5013804;28;20108;-70
2020/12/24 10:22:42;;;;;;;8.90;1.17;;;8.60;99.90;;;;;;4996663;28;20034;-75
2020/12/24 10:25:08;;;;;;;8.98;1.80;;;8.70;99.90;;;;;;5002626;28;20429;-73
2020/12/24 10:27:33;;;;;;;8.68;1.40;;;8.50;99.90;;;;;;5004732;28;20537;-69
2020/12/24 10:29:59;;;;;;;6.82;1.27;;;8.50;99.90;;;;;;5020326;28;20041;-73
2020/12/24 10:32:25;;;;;;;6.22;1.70;;;8.50;99.90;;;;;;5012531;28;20033;-72
2020/12/24 10:34:50;;;;;;;8.75;1.75;;;8.40;99.90;;;;;;5012001;28;20168;-71
2020/12/24 10:37:16;;;;;;;10.18;2.17;;;8.30;99.90;;;;;;5006477;28;20583;-72
2020/12/24 10:39:42;;;;;;;5.55;1.35;;;8.10;99.90;;;;;;5007411;28;20052;-74
2020/12/24 10:42:08;;;;;;;7.75;2.20;;;8.00;99.90;;;;;;5003809;28;20095;-74
2020/12/24 10:44:34;;;;;;;6.68;1.10;;;7.70;99.90;;;;;;5002816;28;20040;-72
2020/12/24 10:46:59;;;;;;;5.82;1.45;;;7.70;99.90;;;;;;5004625;28;20105;-73
2020/12/24 10:49:26;;;;;;;10.40;3.83;;;7.60;99.90;;;;;;5001771;28;20060;-72
2020/12/24 10:51:52;;;;;;;5.25;0.90;;;7.50;99.90;;;;;;5006746;28;20034;-72
2020/12/24 10:54:18;;;;;;;3.13;0.85;;;7.50;99.90;;;;;;5002887;28;20037;-68
2020/12/24 10:56:48;;;;;;;2.15;0.82;;;7.40;99.90;;;;;;4998173;28;20030;-72
2020/12/24 10:59:14;;;;;;;2.65;0.95;;;7.30;99.90;;;;;;5001979;28;20034;-70
2020/12/24 11:01:50;;;;;;;2.38;0.82;;;7.20;99.90;;;;;;5008182;28;20111;-72
2020/12/24 11:04:16;;;;;;;5.57;2.47;;;7.10;99.90;;;;;;4999412;28;20044;-73
2020/12/24 11:06:44;;;;;;;1.52;0.70;;;7.00;99.90;;;;;;5002808;28;20030;-73
2020/12/24 11:09:10;;;;;;;1.55;0.40;;;6.80;99.90;;;;;;5007938;28;20029;-73
2020/12/24 11:11:36;;;;;;;0.77;0.40;;;6.80;99.90;;;;;;5011001;28;20029;-73
2020/12/24 11:14:03;;;;;;;0.95;0.40;;;6.80;99.90;;;;;;5004589;28;20663;-73
2020/12/24 11:16:28;;;;;;;0.47;0.30;;;6.60;99.90;;;;;;5003202;28;20361;-73
2020/12/24 11:18:54;;;;;;;0.32;0.30;;;6.50;99.90;;;;;;5002683;28;20038;-73
2020/12/24 11:21:20;;;;;;;0.40;0.32;;;6.50;99.90;;;;;;5001748;28;20061;-72
2020/12/24 11:23:46;;;;;;;0.30;0.30;;;6.50;99.90;;;;;;5009826;28;20072;-72
2020/12/24 11:26:28;;;;;;;0.30;0.30;;;6.40;99.90;;;;;;5000264;28;20042;-73
2020/12/24 11:28:54;;;;;;;1.85;0.30;;;6.40;99.90;;;;;;5002016;28;20057;-72
2020/12/24 11:31:24;;;;;;;3.33;1.85;;;6.40;99.90;;;;;;5002690;28;20137;-72
2020/12/24 11:33:50;;;;;;;0.32;0.32;;;6.40;99.90;;;;;;5003900;28;20119;-72
2020/12/24 11:36:16;;;;;;;8.25;4.20;;;6.50;99.90;;;;;;5003763;28;20049;-72
2020/12/24 11:38:42;;;;;;;1.70;0.70;;;6.50;99.90;;;;;;5011004;28;20022;-73
2020/12/24 11:41:14;;;;;;;4.88;1.50;;;6.40;99.90;;;;;;5010568;28;20040;-73
2020/12/24 11:43:40;;;;;;;6.78;1.92;;;6.30;99.90;;;;;;4990071;28;20018;-73
2020/12/24 11:46:08;;;;;;;2.30;1.17;;;6.40;99.90;;;;;;5005535;28;20540;-72
2020/12/24 11:48:34;;;;;;;1.70;0.50;;;6.20;99.90;;;;;;4983952;28;20061;-73
2020/12/24 11:50:59;;;;;;;3.13;1.10;;;6.20;99.90;;;;;;4999124;28;20143;-73
2020/12/24 11:53:25;;;;;;;5.63;1.52;;;6.20;99.90;;;;;;4999256;28;20556;-73
2020/12/24 11:55:51;;;;;;;2.65;0.68;;;6.10;99.90;;;;;;5003754;28;20033;-72
2020/12/24 11:58:17;;;;;;;2.53;1.02;;;6.00;99.90;;;;;;5005170;28;20808;-72
2020/12/24 12:00:44;;;;;;;1.42;0.77;;;5.80;99.90;;;;;;5001034;28;20144;-72
2020/12/24 12:03:09;;;;;;;1.85;0.85;;;5.70;99.90;;;;;;5004020;28;20137;-72
2020/12/24 12:05:35;;;;;;;4.30;1.50;;;5.60;99.90;;;;;;5010503;28;20108;-72
2020/12/24 12:08:01;;;;;;;4.60;1.75;;;5.50;99.90;;;;;;5011718;28;20493;-72
2020/12/24 12:10:26;;;;;;;3.58;1.55;;;5.30;99.90;;;;;;5006324;28;20057;-72
2020/12/24 12:12:52;;;;;;;3.72;1.98;;;5.30;99.90;;;;;;5004307;28;20573;-71
2020/12/24 12:15:17;;;;;;;8.27;3.10;;;5.20;99.90;;;;;;5000664;28;20124;-72
2020/12/24 12:17:43;;;;;;;2.65;1.63;;;5.10;99.90;;;;;;4996357;28;20116;-73
2020/12/24 12:20:09;;;;;;;2.35;1.42;;;5.00;99.90;;;;;;5000630;28;20034;-74
2020/12/24 12:22:34;;;;;;;4.57;1.50;;;5.10;99.90;;;;;;5000126;28;20065;-75
2020/12/24 12:25:00;;;;;;;2.63;1.23;;;5.10;99.90;;;;;;5005391;28;20105;-75
2020/12/24 12:27:26;;;;;;;1.10;1.00;;;5.10;99.90;;;;;;4994044;28;20034;-75
2020/12/24 12:29:52;;;;;;;1.15;0.90;;;5.10;99.90;;;;;;5012162;28;20036;-75
2020/12/24 12:32:18;;;;;;;0.75;0.70;;;5.20;99.90;;;;;;5003683;28;20787;-75
2020/12/24 12:34:46;;;;;;;0.30;0.30;;;5.10;99.90;;;;;;5001139;28;20030;-75
2020/12/24 12:37:13;;;;;;;0.60;0.50;;;5.20;99.90;;;;;;5004102;28;20042;-75
2020/12/24 12:39:39;;;;;;;0.82;0.50;;;5.10;99.90;;;;;;4996376;28;20022;-75
2020/12/24 12:42:04;;;;;;;0.22;0.22;;;5.00;99.90;;;;;;5011816;28;20402;-75
2020/12/24 12:44:30;;;;;;;2.13;0.50;;;5.00;99.90;;;;;;5007863;28;20030;-76
2020/12/24 12:46:56;;;;;;;0.43;0.43;;;4.80;99.90;;;;;;5004507;28;20048;-77
2020/12/24 12:49:22;;;;;;;1.13;0.35;;;4.80;99.90;;;;;;5009424;28;20041;-76
2020/12/24 12:51:49;;;;;;;1.25;0.70;;;4.60;99.90;;;;;;5007420;28;20041;-73
2020/12/24 12:54:15;;;;;;;0.40;0.40;;;4.50;99.90;;;;;;5002210;28;20050;-75
2020/12/24 12:56:43;;;;;;;4.50;1.58;;;4.50;99.90;;;;;;5001136;28;20034;-77